createdAt,value
2023-05-19T00:01:25.227Z,100.00
2023-05-19T00:03:57.932Z,100.00
2023-05-19T00:06:27.806Z,100.00
2023-05-19T00:08:58.998Z,100.00
2023-05-19T00:11:27.320Z,100.00
2023-05-19T00:13:56.113Z,100.00
2023-05-19T00:16:25.247Z,100.00
2023-05-19T00:18:53.364Z,100.00
2023-05-19T00:21:20.956Z,100.00
2023-05-19T00:23:47.916Z,100.00
2023-05-19T00:26:15.145Z,100.00
2023-05-19T00:28:51.412Z,100.00
2023-05-19T00:31:18.381Z,100.00
2023-05-19T00:33:46.269Z,100.00
2023-05-19T00:36:13.983Z,100.00
2023-05-19T00:38:41.042Z,100.00
2023-05-19T00:41:07.968Z,100.00
2023-05-19T00:43:35.019Z,100.00
2023-05-19T00:46:02.426Z,100.00
2023-05-19T00:48:29.343Z,100.00
2023-05-19T00:51:04.749Z,100.00
2023-05-19T00:53:38.499Z,100.00
2023-05-19T00:56:06.315Z,100.00
2023-05-19T00:58:36.120Z,100.00
2023-05-19T01:01:05.293Z,100.00
2023-05-19T01:03:37.719Z,100.00
2023-05-19T01:06:08.077Z,100.00
2023-05-19T01:08:37.374Z,100.00
2023-05-19T01:11:05.476Z,100.00
2023-05-19T01:13:33.449Z,100.00
2023-05-19T01:16:12.442Z,100.00
2023-05-19T01:19:14.280Z,100.00
2023-05-19T01:21:53.369Z,100.00
2023-05-19T01:24:49.711Z,100.00
2023-05-19T01:27:47.171Z,100.00
2023-05-19T01:30:28.038Z,100.00
2023-05-19T01:32:59.662Z,100.00
2023-05-19T01:35:28.041Z,100.00
2023-05-19T01:37:58.123Z,100.00
2023-05-19T01:40:27.119Z,100.00
2023-05-19T01:43:00.568Z,100.00
2023-05-19T01:45:33.107Z,100.00
2023-05-19T01:48:02.411Z,100.00
2023-05-19T01:50:30.071Z,100.00
2023-05-19T01:52:58.315Z,100.00
2023-05-19T01:55:26.109Z,100.00
2023-05-19T01:58:17.704Z,100.00
2023-05-19T02:00:53.089Z,100.00
2023-05-19T02:03:41.024Z,100.00
2023-05-19T02:06:29.093Z,100.00
2023-05-19T02:09:12.115Z,100.00
2023-05-19T02:11:46.600Z,100.00
2023-05-19T02:14:22.915Z,100.00
2023-05-19T02:16:52.197Z,100.00
2023-05-19T02:19:33.662Z,100.00
2023-05-19T02:22:00.691Z,100.00
2023-05-19T02:24:27.680Z,100.00
2023-05-19T02:26:54.667Z,100.00
2023-05-19T02:29:21.754Z,100.00
2023-05-19T02:31:50.733Z,100.00
2023-05-19T02:34:19.248Z,100.00
2023-05-19T02:36:49.880Z,100.00
2023-05-19T02:39:17.086Z,100.00
2023-05-19T02:41:44.108Z,100.00
2023-05-19T02:44:10.944Z,100.00
2023-05-19T02:46:38.006Z,100.00
2023-05-19T02:49:05.039Z,100.00
2023-05-19T02:51:32.052Z,100.00
2023-05-19T02:53:59.026Z,100.00
2023-05-19T02:56:26.502Z,100.00
2023-05-19T02:58:53.848Z,100.00
2023-05-19T03:01:22.192Z,100.00
2023-05-19T03:03:49.487Z,100.00
2023-05-19T03:06:18.045Z,100.00
2023-05-19T03:08:45.208Z,100.00
2023-05-19T03:11:12.127Z,100.00
2023-05-19T03:13:42.583Z,100.00
2023-05-19T03:16:11.960Z,100.00
2023-05-19T03:18:38.894Z,100.00
2023-05-19T03:21:06.327Z,100.00
2023-05-19T03:23:33.357Z,100.00
2023-05-19T03:26:01.309Z,100.00
2023-05-19T03:28:28.537Z,100.00
2023-05-19T03:30:55.477Z,100.00
2023-05-19T03:33:29.913Z,100.00
2023-05-19T03:35:57.675Z,100.00
2023-05-19T03:38:25.106Z,100.00
2023-05-19T03:40:57.291Z,100.00
2023-05-19T03:43:24.260Z,100.00
2023-05-19T03:46:03.319Z,100.00
2023-05-19T03:48:50.170Z,100.00
2023-05-19T03:51:41.372Z,100.00
2023-05-19T03:54:28.194Z,100.00
2023-05-19T03:56:55.230Z,100.00
2023-05-19T03:59:23.641Z,100.00
2023-05-19T04:01:51.652Z,100.00
2023-05-19T04:04:19.013Z,100.00
2023-05-19T04:06:46.151Z,100.00
2023-05-19T04:09:14.818Z,100.00
2023-05-19T04:11:42.545Z,100.00
2023-05-19T04:14:10.011Z,100.00
2023-05-19T04:16:37.252Z,100.00
2023-05-19T04:19:04.254Z,100.00
2023-05-19T04:21:31.541Z,100.00
2023-05-19T04:24:01.146Z,100.00
2023-05-19T04:26:31.249Z,100.00
2023-05-19T04:28:58.429Z,100.00
2023-05-19T04:31:26.136Z,100.00
2023-05-19T04:33:53.689Z,100.00
2023-05-19T04:36:22.554Z,100.00
2023-05-19T04:38:54.991Z,100.00
2023-05-19T04:41:25.493Z,100.00
2023-05-19T04:43:52.470Z,100.00
2023-05-19T04:46:24.376Z,100.00
2023-05-19T04:48:57.140Z,100.00
2023-05-19T04:51:31.561Z,100.00
2023-05-19T04:54:01.570Z,100.00
2023-05-19T04:56:29.023Z,100.00
2023-05-19T04:58:56.812Z,100.00
2023-05-19T05:01:26.380Z,100.00
2023-05-19T05:03:59.047Z,100.00
2023-05-19T05:06:26.654Z,100.00
2023-05-19T05:08:53.860Z,100.00
2023-05-19T05:11:21.457Z,100.00
2023-05-19T05:13:48.831Z,100.00
2023-05-19T05:16:16.807Z,100.00
2023-05-19T05:18:45.029Z,100.00
2023-05-19T05:21:12.721Z,100.00
2023-05-19T05:23:41.334Z,100.00
2023-05-19T05:26:13.750Z,100.00
2023-05-19T05:28:41.521Z,100.00
2023-05-19T05:31:08.578Z,100.00
2023-05-19T05:33:36.368Z,100.00
2023-05-19T05:36:03.911Z,100.00
2023-05-19T05:38:31.417Z,100.00
2023-05-19T05:40:59.027Z,100.00
2023-05-19T05:43:26.099Z,100.00
2023-05-19T05:45:58.223Z,100.00
2023-05-19T05:48:25.956Z,100.00
2023-05-19T05:50:53.418Z,100.00
2023-05-19T05:53:26.952Z,100.00
2023-05-19T05:55:55.325Z,100.00
2023-05-19T05:58:27.556Z,100.00
2023-05-19T06:00:57.599Z,100.00
2023-05-19T06:03:26.140Z,100.00
2023-05-19T06:05:54.672Z,100.00
2023-05-19T06:08:22.004Z,100.00
2023-05-19T06:10:49.215Z,100.00
2023-05-19T06:13:22.269Z,100.00
2023-05-19T06:15:49.893Z,100.00
2023-05-19T06:18:21.783Z,100.00
2023-05-19T06:20:48.903Z,100.00
2023-05-19T06:23:15.928Z,100.00
2023-05-19T06:25:42.969Z,100.00
2023-05-19T06:28:11.021Z,100.00
2023-05-19T06:30:38.190Z,100.00
2023-05-19T06:33:20.078Z,100.00
2023-05-19T06:35:46.995Z,100.00
2023-05-19T06:38:15.305Z,100.00
2023-05-19T06:40:42.708Z,100.00
2023-05-19T06:43:10.071Z,100.00
2023-05-19T06:45:53.363Z,100.00
2023-05-19T06:48:20.653Z,100.00
2023-05-19T06:50:48.577Z,100.00
2023-05-19T06:53:17.649Z,100.00
2023-05-19T06:55:58.125Z,100.00
2023-05-19T06:58:28.474Z,100.00
2023-05-19T07:00:56.535Z,100.00
2023-05-19T07:03:27.288Z,100.00
2023-05-19T07:05:55.416Z,100.00
2023-05-19T07:08:22.831Z,100.00
2023-05-19T07:10:49.968Z,100.00
2023-05-19T07:13:17.554Z,100.00
2023-05-19T07:15:45.142Z,100.00
2023-05-19T07:18:12.505Z,100.00
2023-05-19T07:20:39.506Z,100.00
2023-05-19T07:23:06.869Z,100.00
2023-05-19T07:25:34.009Z,100.00
2023-05-19T07:28:01.369Z,100.00
2023-05-19T07:30:28.996Z,100.00
2023-05-19T07:32:56.312Z,100.00
2023-05-19T07:35:23.580Z,100.00
2023-05-19T07:37:52.572Z,100.00
2023-05-19T07:40:19.654Z,100.00
2023-05-19T07:42:46.642Z,100.00
2023-05-19T07:45:13.537Z,100.00
2023-05-19T07:47:41.348Z,100.00
2023-05-19T07:50:08.606Z,100.00
2023-05-19T07:52:35.998Z,100.00
2023-05-19T07:55:02.944Z,100.00
2023-05-19T07:57:29.906Z,100.00
2023-05-19T07:59:56.866Z,100.00
2023-05-19T08:02:23.832Z,100.00
2023-05-19T08:04:50.992Z,100.00
2023-05-19T08:07:18.075Z,100.00
2023-05-19T08:09:44.965Z,100.00
2023-05-19T08:12:11.937Z,97.15
2023-05-19T08:14:39.089Z,93.31
2023-05-19T08:17:06.349Z,92.71
2023-05-19T08:19:33.347Z,94.02
2023-05-19T08:22:01.754Z,94.73
2023-05-19T08:24:32.955Z,91.88
2023-05-19T08:27:00.060Z,92.43
2023-05-19T08:29:27.005Z,88.51
2023-05-19T08:31:54.035Z,87.80
2023-05-19T08:34:21.277Z,84.21
2023-05-19T08:36:48.318Z,83.34
2023-05-19T08:39:18.665Z,78.68
2023-05-19T08:41:45.969Z,79.65
2023-05-19T08:44:13.019Z,74.87
2023-05-19T08:46:40.302Z,76.98
2023-05-19T08:49:13.285Z,73.97
2023-05-19T08:52:01.599Z,74.00
2023-05-19T08:54:44.823Z,69.13
2023-05-19T08:57:13.158Z,73.04
2023-05-19T08:59:41.097Z,70.83
2023-05-19T09:02:11.635Z,68.04
2023-05-19T09:04:40.351Z,66.94
2023-05-19T09:07:09.426Z,69.10
2023-05-19T09:09:36.462Z,65.05
2023-05-19T09:12:04.632Z,65.11
2023-05-19T09:14:33.172Z,65.24
2023-05-19T09:17:01.232Z,63.39
2023-05-19T09:19:31.873Z,64.20
2023-05-19T09:22:06.522Z,65.19
2023-05-19T09:24:34.902Z,64.59
2023-05-19T09:27:02.302Z,65.55
2023-05-19T09:29:29.182Z,64.17
2023-05-19T09:32:01.020Z,63.56
2023-05-19T09:34:28.264Z,63.08
2023-05-19T09:36:55.743Z,63.80
2023-05-19T09:39:23.693Z,61.59
2023-05-19T09:41:55.268Z,60.67
2023-05-19T09:44:29.739Z,59.40
2023-05-19T09:46:58.396Z,60.56
2023-05-19T09:49:29.676Z,59.50
2023-05-19T09:51:58.699Z,59.27
2023-05-19T09:54:28.473Z,61.20
2023-05-19T09:57:03.793Z,60.34
2023-05-19T09:59:32.946Z,59.04
2023-05-19T10:02:02.535Z,57.74
2023-05-19T10:04:31.134Z,56.20
2023-05-19T10:07:05.824Z,54.94
2023-05-19T10:09:36.416Z,56.09
2023-05-19T10:12:04.633Z,57.22
2023-05-19T10:14:31.587Z,56.54
2023-05-19T10:16:59.613Z,57.11
2023-05-19T10:19:29.188Z,56.47
2023-05-19T10:21:56.963Z,58.94
2023-05-19T10:24:24.077Z,60.13
2023-05-19T10:26:57.868Z,59.32
2023-05-19T10:29:30.850Z,58.54
2023-05-19T10:32:06.763Z,60.27
2023-05-19T10:34:57.590Z,58.16
2023-05-19T10:37:41.819Z,58.29
2023-05-19T10:40:20.250Z,59.22
2023-05-19T10:43:07.524Z,59.63
2023-05-19T10:45:46.354Z,60.64
2023-05-19T10:48:17.285Z,60.29
2023-05-19T10:50:46.776Z,58.88
2023-05-19T10:53:18.577Z,58.26
2023-05-19T10:55:56.022Z,58.34
2023-05-19T10:58:39.879Z,57.71
2023-05-19T11:01:17.493Z,57.56
2023-05-19T11:03:55.108Z,57.12
2023-05-19T11:06:26.533Z,58.90
2023-05-19T11:08:58.304Z,56.51
2023-05-19T11:11:25.256Z,57.34
2023-05-19T11:13:56.643Z,56.40
2023-05-19T11:16:31.965Z,56.17
2023-05-19T11:18:59.941Z,56.68
2023-05-19T11:21:49.176Z,55.62
2023-05-19T11:24:36.337Z,54.68
2023-05-19T11:27:22.297Z,55.66
2023-05-19T11:29:49.687Z,56.11
2023-05-19T11:32:17.475Z,56.45
2023-05-19T11:34:45.910Z,55.65
2023-05-19T11:37:13.113Z,55.46
2023-05-19T11:39:40.831Z,54.36
2023-05-19T11:42:11.569Z,55.36
2023-05-19T11:44:39.054Z,56.00
2023-05-19T11:47:06.930Z,54.62
2023-05-19T11:49:34.627Z,55.32
2023-05-19T11:52:04.700Z,56.43
2023-05-19T11:54:33.463Z,57.06
2023-05-19T11:57:02.883Z,58.94
2023-05-19T11:59:34.839Z,57.50
2023-05-19T12:02:28.088Z,55.40
2023-05-19T12:04:55.292Z,56.85
2023-05-19T12:07:23.778Z,58.12
2023-05-19T12:09:52.337Z,57.77
2023-05-19T12:12:21.059Z,58.23
2023-05-19T12:14:50.927Z,58.81
2023-05-19T12:17:20.051Z,60.23
2023-05-19T12:19:48.695Z,59.51
2023-05-19T12:22:17.503Z,61.16
2023-05-19T12:24:45.558Z,59.64
2023-05-19T12:27:20.056Z,61.58
2023-05-19T12:29:52.362Z,61.02
2023-05-19T12:32:23.050Z,58.82
2023-05-19T12:34:50.283Z,61.44
2023-05-19T12:37:17.646Z,61.25
2023-05-19T12:39:45.292Z,62.69
2023-05-19T12:42:13.068Z,62.32
2023-05-19T12:44:44.286Z,62.68
2023-05-19T12:47:11.285Z,63.27
2023-05-19T12:50:04.044Z,61.84
2023-05-19T12:52:35.709Z,63.32
2023-05-19T12:55:07.653Z,62.98
2023-05-19T12:57:36.122Z,63.56
2023-05-19T13:00:14.112Z,64.25
2023-05-19T13:03:05.417Z,62.92
2023-05-19T13:05:35.779Z,64.19
2023-05-19T13:08:10.098Z,64.66
2023-05-19T13:10:39.132Z,65.05
2023-05-19T13:13:08.915Z,64.11
2023-05-19T13:15:39.265Z,62.62
2023-05-19T13:18:11.359Z,64.90
2023-05-19T13:20:40.525Z,65.06
2023-05-19T13:23:07.616Z,63.47
2023-05-19T13:25:34.964Z,64.35
2023-05-19T13:28:06.037Z,64.67
2023-05-19T13:30:34.759Z,67.78
2023-05-19T13:33:02.810Z,68.97
2023-05-19T13:35:30.823Z,68.48
2023-05-19T13:37:57.935Z,63.82
2023-05-19T13:40:26.160Z,66.96
2023-05-19T13:42:53.282Z,67.94
2023-05-19T13:45:20.226Z,70.29
2023-05-19T13:47:47.175Z,73.02
2023-05-19T13:50:14.121Z,70.39
2023-05-19T13:52:41.298Z,70.47
2023-05-19T13:55:08.861Z,68.93
2023-05-19T13:57:36.010Z,69.48
2023-05-19T14:00:04.959Z,70.38
2023-05-19T14:02:41.163Z,71.14
2023-05-19T14:05:08.769Z,69.41
2023-05-19T14:07:36.314Z,69.51
2023-05-19T14:10:05.760Z,68.65
2023-05-19T14:12:43.584Z,65.96
2023-05-19T14:15:20.212Z,66.09
2023-05-19T14:17:49.068Z,65.17
2023-05-19T14:20:16.264Z,64.19
2023-05-19T14:22:43.437Z,64.33
2023-05-19T14:25:10.687Z,63.73
2023-05-19T14:27:39.909Z,64.98
2023-05-19T14:30:08.074Z,62.69
2023-05-19T14:35:02.491Z,65.35
2023-05-19T14:37:31.756Z,66.84
2023-05-19T14:39:59.155Z,65.86
2023-05-19T14:42:26.216Z,65.83
2023-05-19T14:44:53.154Z,66.24
2023-05-19T14:47:20.132Z,66.82
2023-05-19T14:49:47.169Z,64.19
2023-05-19T14:52:14.381Z,65.69
2023-05-19T14:54:41.251Z,64.62
2023-05-19T14:57:08.388Z,65.13
2023-05-19T14:59:38.810Z,66.01
2023-05-19T15:02:06.447Z,66.58
2023-05-19T15:04:33.400Z,66.78
2023-05-19T15:09:30.488Z,66.33
2023-05-19T15:11:57.388Z,67.83
2023-05-19T15:14:24.355Z,68.20
2023-05-19T15:16:51.492Z,67.68
2023-05-19T15:19:18.693Z,66.64
2023-05-19T15:21:46.090Z,66.23
2023-05-19T15:24:13.192Z,66.49
2023-05-19T15:26:40.139Z,66.48
2023-05-19T15:29:07.054Z,66.79
2023-05-19T15:31:35.941Z,66.75
2023-05-19T15:34:05.774Z,67.85
2023-05-19T15:36:33.442Z,68.31
2023-05-19T15:39:00.789Z,67.74
2023-05-19T15:41:27.743Z,66.16
2023-05-19T15:43:54.900Z,65.28
2023-05-19T15:46:21.873Z,66.66
2023-05-19T15:48:48.844Z,66.70
2023-05-19T15:51:16.152Z,66.36
2023-05-19T15:53:43.160Z,65.37
2023-05-19T15:56:11.405Z,65.31
2023-05-19T15:58:38.626Z,64.18
2023-05-19T16:01:06.740Z,64.91
2023-05-19T16:03:33.968Z,64.37
2023-05-19T16:06:01.248Z,64.98
2023-05-19T16:08:28.695Z,65.79
2023-05-19T16:10:56.119Z,65.47
2023-05-19T16:13:23.294Z,65.52
2023-05-19T16:15:50.266Z,65.87
2023-05-19T16:18:17.271Z,65.83
2023-05-19T16:20:44.488Z,66.25
2023-05-19T16:23:11.414Z,67.25
2023-05-19T16:25:38.370Z,68.07
2023-05-19T16:28:05.920Z,67.63
2023-05-19T16:30:33.096Z,60.91
2023-05-19T16:33:00.233Z,59.51
2023-05-19T16:35:29.979Z,54.35
2023-05-19T16:37:56.933Z,52.18
2023-05-19T16:40:24.163Z,48.31
2023-05-19T16:42:52.934Z,47.35
2023-05-19T16:45:20.005Z,49.40
2023-05-19T16:47:47.139Z,50.41
2023-05-19T16:50:14.093Z,54.96
2023-05-19T16:52:41.056Z,57.91
2023-05-19T16:55:08.464Z,60.99
2023-05-19T16:57:35.960Z,63.94
2023-05-19T17:00:03.714Z,65.80
2023-05-19T17:02:31.022Z,67.24
2023-05-19T17:04:58.044Z,67.25
2023-05-19T17:07:25.038Z,68.94
2023-05-19T17:09:53.946Z,69.93
2023-05-19T17:12:22.240Z,70.80
2023-05-19T17:14:50.634Z,70.17
2023-05-19T17:17:18.772Z,69.86
2023-05-19T17:19:46.064Z,70.02
2023-05-19T17:22:13.024Z,69.57
2023-05-19T17:24:40.031Z,69.95
2023-05-19T17:27:07.181Z,68.61
2023-05-19T17:29:34.845Z,68.93
2023-05-19T17:32:04.442Z,67.04
2023-05-19T17:34:31.674Z,67.07
2023-05-19T17:36:58.655Z,66.99
2023-05-19T17:39:25.776Z,67.08
2023-05-19T17:41:52.976Z,67.22
2023-05-19T17:44:20.040Z,67.83
2023-05-19T17:46:47.134Z,69.54
2023-05-19T17:49:15.587Z,70.17
2023-05-19T17:51:42.939Z,70.33
2023-05-19T17:54:10.025Z,69.58
2023-05-19T17:56:42.372Z,67.56
2023-05-19T17:59:09.826Z,66.04
2023-05-19T18:01:37.389Z,66.92
2023-05-19T18:04:04.991Z,67.10
2023-05-19T18:06:32.458Z,68.93
2023-05-19T18:09:01.289Z,69.46
2023-05-19T18:11:28.514Z,70.60
2023-05-19T18:13:55.421Z,71.96
2023-05-19T18:16:22.492Z,73.12
2023-05-19T18:18:50.636Z,74.04
2023-05-19T18:21:18.240Z,75.70
2023-05-19T18:23:46.026Z,77.51
2023-05-19T18:26:13.444Z,77.94
2023-05-19T18:28:41.396Z,78.61
2023-05-19T18:31:17.410Z,81.07
2023-05-19T18:33:45.684Z,81.88
2023-05-19T18:36:13.701Z,82.22
2023-05-19T18:38:41.021Z,82.82
2023-05-19T18:41:08.381Z,85.23
2023-05-19T18:43:35.850Z,86.11
2023-05-19T18:46:03.118Z,86.53
2023-05-19T18:48:30.488Z,87.68
2023-05-19T18:50:57.618Z,87.95
2023-05-19T18:53:24.592Z,89.64
2023-05-19T18:55:51.660Z,90.60
2023-05-19T18:58:19.112Z,91.36
2023-05-19T19:00:46.268Z,91.18
2023-05-19T19:03:13.411Z,90.68
2023-05-19T19:05:40.576Z,90.74
2023-05-19T19:08:07.556Z,90.86
2023-05-19T19:10:39.209Z,90.43
2023-05-19T19:13:06.941Z,91.40
2023-05-19T19:15:34.027Z,92.21
2023-05-19T19:18:01.380Z,92.04
2023-05-19T19:20:28.528Z,93.44
2023-05-19T19:22:56.119Z,95.12
2023-05-19T19:25:23.773Z,97.21
2023-05-19T19:27:51.379Z,98.21
2023-05-19T19:30:18.531Z,99.35
2023-05-19T19:32:45.505Z,100.00
2023-05-19T19:35:12.601Z,100.00
2023-05-19T19:37:39.559Z,100.00
2023-05-19T19:40:06.965Z,100.00
2023-05-19T19:42:34.672Z,100.00
2023-05-19T19:45:01.924Z,100.00
2023-05-19T19:47:29.251Z,100.00
2023-05-19T19:49:56.580Z,100.00
2023-05-19T19:52:23.722Z,100.00
2023-05-19T19:54:50.648Z,100.00
2023-05-19T19:57:18.765Z,100.00
2023-05-19T19:59:46.058Z,100.00
2023-05-19T20:02:14.357Z,100.00
2023-05-19T20:04:41.449Z,100.00
2023-05-19T20:07:08.521Z,100.00
2023-05-19T20:09:36.000Z,100.00
2023-05-19T20:12:03.053Z,100.00
2023-05-19T20:14:30.030Z,100.00
2023-05-19T20:16:56.903Z,100.00
2023-05-19T20:19:28.366Z,100.00
2023-05-19T20:21:56.085Z,100.00
2023-05-19T20:24:23.218Z,100.00
2023-05-19T20:26:50.572Z,100.00
2023-05-19T20:29:17.566Z,100.00
2023-05-19T20:31:46.890Z,100.00
2023-05-19T20:34:14.910Z,100.00
2023-05-19T20:36:42.239Z,100.00
2023-05-19T20:39:10.279Z,100.00
2023-05-19T20:41:37.317Z,100.00
2023-05-19T20:44:04.833Z,100.00
2023-05-19T20:46:32.517Z,100.00
2023-05-19T20:49:00.127Z,100.00
2023-05-19T20:51:27.391Z,100.00
2023-05-19T20:53:54.370Z,100.00
2023-05-19T20:56:22.712Z,100.00
2023-05-19T20:58:49.696Z,100.00
2023-05-19T21:01:17.021Z,100.00
2023-05-19T21:03:44.147Z,100.00
2023-05-19T21:06:11.573Z,100.00
2023-05-19T21:08:38.515Z,100.00
2023-05-19T21:11:05.493Z,100.00
2023-05-19T21:13:32.537Z,100.00
2023-05-19T21:15:59.620Z,100.00
2023-05-19T21:18:26.731Z,100.00
2023-05-19T21:20:53.814Z,100.00
2023-05-19T21:23:20.755Z,100.00
2023-05-19T21:25:47.702Z,100.00
2023-05-19T21:28:14.764Z,100.00
2023-05-19T21:30:41.708Z,100.00
2023-05-19T21:33:08.731Z,100.00
2023-05-19T21:35:37.029Z,100.00
2023-05-19T21:38:11.984Z,100.00
2023-05-19T21:40:49.344Z,100.00
2023-05-19T21:43:16.403Z,100.00
2023-05-19T21:45:43.462Z,100.00
2023-05-19T21:48:11.599Z,100.00
2023-05-19T21:50:38.950Z,100.00
2023-05-19T21:53:06.133Z,100.00
2023-05-19T21:55:33.281Z,100.00
2023-05-19T21:58:01.691Z,100.00
2023-05-19T22:00:29.617Z,100.00
2023-05-19T22:02:56.933Z,100.00
2023-05-19T22:05:24.004Z,100.00
2023-05-19T22:07:50.838Z,100.00
2023-05-19T22:10:17.769Z,100.00
2023-05-19T22:12:44.635Z,100.00
2023-05-19T22:15:13.423Z,100.00
2023-05-19T22:17:40.537Z,100.00
2023-05-19T22:20:08.215Z,100.00
2023-05-19T22:22:35.148Z,100.00
2023-05-19T22:25:03.957Z,100.00
2023-05-19T22:27:31.606Z,100.00
2023-05-19T22:29:59.870Z,100.00
2023-05-19T22:32:26.931Z,100.00
2023-05-19T22:34:53.963Z,100.00
2023-05-19T22:37:23.809Z,100.00
2023-05-19T22:39:51.704Z,100.00
2023-05-19T22:42:18.757Z,100.00
2023-05-19T22:44:45.951Z,100.00
2023-05-19T22:47:13.647Z,100.00
2023-05-19T22:49:42.446Z,100.00
2023-05-19T22:52:11.185Z,100.00
2023-05-19T22:54:38.761Z,100.00
2023-05-19T22:57:06.567Z,100.00
2023-05-19T22:59:33.740Z,100.00
2023-05-19T23:02:00.812Z,100.00
2023-05-19T23:04:28.039Z,100.00
2023-05-19T23:06:55.123Z,100.00
2023-05-19T23:09:22.148Z,100.00
2023-05-19T23:11:49.512Z,100.00
2023-05-19T23:14:18.574Z,100.00
2023-05-19T23:16:45.645Z,100.00
2023-05-19T23:19:12.606Z,100.00
2023-05-19T23:21:39.553Z,100.00
2023-05-19T23:24:06.727Z,100.00
2023-05-19T23:26:33.700Z,100.00
2023-05-19T23:29:01.009Z,100.00
2023-05-19T23:31:28.129Z,100.00
2023-05-19T23:33:55.305Z,100.00
2023-05-19T23:36:23.186Z,100.00
2023-05-19T23:38:50.356Z,100.00
2023-05-19T23:41:17.316Z,100.00
2023-05-19T23:43:44.287Z,100.00
2023-05-19T23:46:11.322Z,100.00
2023-05-19T23:48:38.288Z,100.00
2023-05-19T23:51:05.863Z,100.00
2023-05-19T23:53:32.930Z,100.00
2023-05-19T23:55:59.951Z,100.00
2023-05-19T23:58:26.856Z,100.00
